KALN METAR and TAF | Updated Today

KALN METAR

St Louis Regional Airport

Observation time: 12 min. ago

KALN 061950Z 15018G22KT 10SM CLR 14/03 A2999

Need help? Read our tutorial on how to read METARs or read the parsed version below.

St Louis Regional Airport (KALN) METAR

  • Weather conditions on Mon, 06 Feb 2023 19:50:00 +0000 (12 min. ago):
  • Present conditions: Dry
  • Clouds: Clear skies
  • Visibility: 16093 meters
  • Wind: 150 degrees at 18 knots
  • Temperature: 14 celsius
  • Dew point: 3 celsius
  • Pressure: 29.99 inHg
  • Remarks: None


Useful to know...

KALN TAF

St Louis Regional Airport

TAF not found.

Airports near KALN

KBLV Weather
IATA: BLV
Region: Belleville

Scott AFB/Midamerica Airport

Found in our database
KCPS Weather
Region: Cahokia/St Louis

St Louis Downtown Airport

Not found in our database
KGRE Weather
Region: Greenville

Greenville Airport

Not found in our database
KSTL Weather
IATA: STL
Region: St Louis

St Louis Lambert International Airport

Found in our database
KSUS Weather
IATA: SUS
Region: St Louis

Spirit of St Louis Airport

Found in our database
KVLA Weather
Region: Vandalia

Vandalia Municipal Airport

Not found in our database